KFMN/FMN METAR and TAF weather

Enter ICAO airport designator
Station Type Date Time Source
KFMN METAR 2022/06/26 07:53 UTC NOAA

KFMN 260753Z AUTO 10004KT 10SM OVC090 21/10 A3032 RMK AO2 SLP199 T02060100


Station Type Date Time Source
KFMN Decoded METAR 2022/06/26 07:53 UTC NOAA

FARMINGTON FOUR CORNERS, NM, United States (KFMN) 36-45N 108-14W 1685M
Jun 26, 2022 - 03:53 AM EDT / 2022.06.26 0753 UTC
Wind: from the E (100 degrees) at 5 MPH (4 KT):0
Visibility: 10 mile(s):0
Sky conditions: overcast
Temperature: 69.1 F (20.6 C)
Dew Point: 50.0 F (10.0 C)
Relative Humidity: 50%
Pressure (altimeter): 30.32 in. Hg (1026 hPa)
ob: KFMN 260753Z AUTO 10004KT 10SM OVC090 21/10 A3032 RMK AO2 SLP199 T02060100
cycle: 8

Station Type Date Time Source
KFMN TAF 2022/06/26 06:42 UTC NOAA

TAF KFMN 260539Z 2606/2706 12010KT P6SM OVC110
FM261500 12010KT P6SM VCSH SCT035 OVC100
FM261900 09015KT P6SM -SHRA SCT040 BKN080
FM270300 12012KT P6SM -SHRA BKN040

Example: see airport list